createdAt,value
2019-05-05T00:01:51.976Z,12.90
2019-05-05T00:06:56.267Z,12.03
2019-05-05T00:12:08.418Z,10.80
2019-05-05T00:17:17.331Z,10.10
2019-05-05T00:22:21.581Z,9.87
2019-05-05T00:27:25.778Z,9.97
2019-05-05T00:32:31.128Z,10.27
2019-05-05T00:37:35.509Z,11.50
2019-05-05T00:42:39.489Z,12.03
2019-05-05T00:47:45.325Z,11.23
2019-05-05T00:52:49.662Z,12.80
2019-05-05T00:57:54.805Z,12.60
2019-05-05T01:02:59.378Z,13.47
2019-05-05T01:08:05.251Z,12.80
2019-05-05T01:13:09.565Z,12.23
2019-05-05T01:18:15.225Z,13.17
2019-05-05T01:23:20.257Z,11.75
2019-05-05T01:28:26.199Z,11.03
2019-05-05T01:33:47.175Z,11.20
2019-05-05T01:39:11.259Z,11.63
2019-05-05T01:44:15.334Z,12.10
2019-05-05T01:49:19.171Z,12.80
2019-05-05T01:54:24.986Z,12.37
2019-05-05T01:59:29.810Z,11.60
2019-05-05T02:04:34.455Z,11.03
2019-05-05T02:09:38.714Z,11.20
2019-05-05T02:14:44.400Z,11.77
2019-05-05T02:19:48.701Z,11.00
2019-05-05T02:24:54.911Z,11.33
2019-05-05T02:30:05.753Z,10.83
2019-05-05T02:35:16.767Z,10.65
2019-05-05T02:40:24.400Z,11.77
2019-05-05T02:45:37.412Z,14.67
2019-05-05T02:50:59.827Z,10.80
2019-05-05T02:55:59.759Z,10.83
2019-05-05T03:01:18.306Z,10.20
2019-05-05T03:06:23.785Z,11.20
2019-05-05T03:11:28.614Z,10.53
2019-05-05T03:16:34.178Z,11.63
2019-05-05T03:21:39.943Z,10.20
2019-05-05T03:26:45.110Z,10.28
2019-05-05T03:31:49.758Z,10.20
2019-05-05T03:36:54.001Z,11.03
2019-05-05T03:42:00.260Z,10.67
2019-05-05T03:47:06.339Z,10.37
2019-05-05T03:52:10.997Z,10.20
2019-05-05T03:57:15.835Z,11.20
2019-05-05T04:02:27.955Z,12.00
2019-05-05T04:07:33.492Z,12.07
2019-05-05T04:12:38.470Z,11.73
2019-05-05T04:17:44.517Z,11.40
2019-05-05T04:22:48.802Z,10.70
2019-05-05T04:27:53.853Z,10.43
2019-05-05T04:32:58.479Z,10.40
2019-05-05T04:38:04.603Z,11.10
2019-05-05T04:43:08.750Z,10.43
2019-05-05T04:48:14.588Z,11.07
2019-05-05T04:53:20.466Z,12.47
2019-05-05T04:58:24.751Z,12.13
2019-05-05T05:03:34.653Z,10.00
2019-05-05T05:08:39.022Z,9.93
2019-05-05T05:13:44.050Z,10.18
2019-05-05T05:18:48.033Z,9.73
2019-05-05T05:23:53.616Z,10.00
2019-05-05T05:28:57.666Z,9.73
2019-05-05T05:34:04.258Z,8.67
2019-05-05T05:39:27.776Z,10.43
2019-05-05T05:44:53.405Z,9.03
2019-05-05T05:50:04.028Z,9.27
2019-05-05T05:55:08.835Z,8.37
2019-05-05T06:00:14.513Z,9.53
2019-05-05T06:05:19.083Z,8.40
2019-05-05T06:10:27.031Z,9.37
2019-05-05T06:15:28.927Z,9.30
2019-05-05T06:20:34.449Z,9.63
2019-05-05T06:25:38.874Z,10.13
2019-05-05T06:30:44.307Z,15.20
2019-05-05T06:35:48.811Z,8.90
2019-05-05T06:40:54.748Z,8.83
2019-05-05T06:46:04.058Z,14.13
2019-05-05T06:51:08.345Z,14.17
2019-05-05T06:56:14.566Z,9.47
2019-05-05T07:01:18.699Z,11.60
2019-05-05T07:06:23.926Z,9.43
2019-05-05T07:11:28.269Z,8.90
2019-05-05T07:16:34.457Z,9.33
2019-05-05T07:21:38.374Z,9.07
2019-05-05T07:26:44.528Z,10.60
2019-05-05T07:31:48.557Z,9.97
2019-05-05T07:36:54.610Z,10.83
2019-05-05T07:41:58.121Z,9.80
2019-05-05T07:47:03.644Z,11.57
2019-05-05T07:52:08.102Z,13.03
2019-05-05T07:57:14.641Z,10.60
2019-05-05T08:02:18.895Z,12.30
2019-05-05T08:07:24.556Z,14.03
2019-05-05T08:12:28.510Z,14.03
2019-05-05T08:17:50.835Z,15.80
2019-05-05T08:22:54.957Z,15.57
2019-05-05T08:28:09.699Z,15.90
2019-05-05T08:33:14.181Z,18.40
2019-05-05T08:38:18.452Z,17.63
2019-05-05T08:43:24.193Z,20.87
2019-05-05T08:48:28.272Z,24.43
2019-05-05T08:53:44.191Z,26.43
2019-05-05T08:58:38.753Z,25.60
2019-05-05T09:03:44.277Z,23.83
2019-05-05T09:08:48.392Z,20.10
2019-05-05T09:13:53.569Z,24.53
2019-05-05T09:18:59.622Z,27.60
2019-05-05T09:24:24.963Z,24.77
2019-05-05T09:29:30.699Z,23.83
2019-05-05T09:34:34.898Z,22.27
2019-05-05T09:39:39.219Z,18.00
2019-05-05T09:44:43.909Z,16.77
2019-05-05T09:49:47.782Z,18.47
2019-05-05T09:54:51.698Z,17.83
2019-05-05T09:59:57.207Z,19.13
2019-05-05T10:05:01.415Z,16.03
2019-05-05T10:10:06.545Z,12.30
2019-05-05T10:15:13.717Z,20.47
2019-05-05T10:20:17.783Z,16.03
2019-05-05T10:25:39.131Z,13.67
2019-05-05T10:30:43.091Z,12.63
2019-05-05T10:35:46.954Z,11.20
2019-05-05T10:40:51.138Z,9.20
2019-05-05T10:45:55.099Z,8.77
2019-05-05T10:50:59.300Z,12.40
2019-05-05T10:56:04.426Z,11.93
2019-05-05T11:01:08.874Z,8.23
2019-05-05T11:06:13.746Z,11.20
2019-05-05T11:11:17.763Z,13.85
2019-05-05T11:16:22.035Z,10.50
2019-05-05T11:21:26.246Z,11.13
2019-05-05T11:26:30.386Z,13.57
2019-05-05T11:31:34.652Z,14.07
2019-05-05T11:36:54.344Z,9.37
2019-05-05T11:41:58.203Z,12.27
2019-05-05T11:47:03.708Z,8.77
2019-05-05T11:52:08.554Z,11.43
2019-05-05T11:57:13.548Z,9.57
2019-05-05T12:02:17.881Z,10.20
2019-05-05T12:07:23.718Z,9.70
2019-05-05T12:12:27.740Z,11.33
2019-05-05T12:17:35.193Z,8.80
2019-05-05T12:22:39.458Z,10.33
2019-05-05T12:27:54.598Z,10.73
2019-05-05T12:32:58.491Z,9.77
2019-05-05T12:38:02.948Z,9.63
2019-05-05T12:43:07.158Z,10.03
2019-05-05T12:48:15.733Z,9.90
2019-05-05T12:53:19.982Z,13.03
2019-05-05T12:58:24.178Z,10.83
2019-05-05T13:03:28.536Z,8.18
2019-05-05T13:08:34.044Z,9.87
2019-05-05T13:13:38.342Z,10.67
2019-05-05T13:18:42.545Z,9.07
2019-05-05T13:23:53.777Z,7.57
2019-05-05T13:28:57.599Z,6.90
2019-05-05T13:34:01.709Z,5.53
2019-05-05T13:39:08.212Z,7.07
2019-05-05T13:44:14.862Z,7.13
2019-05-05T13:49:29.398Z,6.17
2019-05-05T13:54:33.673Z,8.30
2019-05-05T13:59:37.626Z,10.47
2019-05-05T14:04:43.630Z,7.67
2019-05-05T14:09:47.653Z,10.10
2019-05-05T14:14:54.472Z,6.33
2019-05-05T14:20:04.663Z,7.13
2019-05-05T14:25:10.718Z,8.53
2019-05-05T14:30:19.520Z,9.23
2019-05-05T14:35:31.306Z,7.17
2019-05-05T14:40:35.502Z,6.57
2019-05-05T14:45:39.752Z,8.87
2019-05-05T14:50:43.946Z,5.97
2019-05-05T14:55:49.036Z,6.57
2019-05-05T15:00:53.411Z,7.53
2019-05-05T15:06:00.350Z,5.87
2019-05-05T15:11:09.383Z,6.03
2019-05-05T15:16:14.036Z,5.90
2019-05-05T15:21:18.327Z,7.20
2019-05-05T15:26:23.805Z,7.07
2019-05-05T15:31:28.113Z,6.53
2019-05-05T15:36:33.443Z,9.10
2019-05-05T15:41:38.095Z,7.70
2019-05-05T15:46:44.153Z,7.90
2019-05-05T15:51:48.282Z,9.37
2019-05-05T15:57:02.975Z,10.70
2019-05-05T16:01:58.059Z,9.20
2019-05-05T16:07:01.917Z,9.13
2019-05-05T16:12:06.383Z,7.70
2019-05-05T16:17:30.439Z,6.60
2019-05-05T16:22:43.673Z,7.90
2019-05-05T16:27:48.068Z,8.87
2019-05-05T16:32:54.957Z,7.57
2019-05-05T16:37:58.840Z,6.47
2019-05-05T16:43:04.591Z,8.80
2019-05-05T16:48:09.036Z,9.97
2019-05-05T16:53:31.512Z,7.20
2019-05-05T16:58:35.752Z,9.47
2019-05-05T17:03:40.691Z,7.47
2019-05-05T17:08:45.056Z,6.97
2019-05-05T17:13:54.494Z,8.53
2019-05-05T17:19:04.721Z,11.38
2019-05-05T17:24:09.006Z,8.13
2019-05-05T17:29:14.663Z,9.87
2019-05-05T17:34:19.034Z,7.87
2019-05-05T17:39:24.066Z,6.30
2019-05-05T17:44:42.003Z,8.50
2019-05-05T17:49:57.381Z,6.17
2019-05-05T17:55:04.580Z,7.50
2019-05-05T18:00:08.664Z,5.93
2019-05-05T18:05:13.994Z,6.43
2019-05-05T18:10:23.894Z,5.93
2019-05-05T18:15:48.276Z,7.40
2019-05-05T18:20:54.077Z,7.87
2019-05-05T18:25:57.886Z,6.77
2019-05-05T18:31:02.461Z,6.27
2019-05-05T18:36:06.406Z,6.63
2019-05-05T18:41:14.022Z,6.83
2019-05-05T18:46:17.950Z,7.37
2019-05-05T18:51:24.141Z,7.30
2019-05-05T18:56:29.860Z,7.60
2019-05-05T19:01:41.421Z,9.27
2019-05-05T19:06:46.928Z,5.00
2019-05-05T19:11:51.059Z,7.40
2019-05-05T19:16:55.662Z,6.73
2019-05-05T19:22:01.354Z,6.70
2019-05-05T19:27:05.289Z,5.27
2019-05-05T19:32:10.221Z,7.57
2019-05-05T19:37:14.402Z,7.33
2019-05-05T19:42:18.588Z,6.57
2019-05-05T19:47:24.286Z,7.53
2019-05-05T19:52:28.706Z,7.30
2019-05-05T19:57:35.786Z,9.93
2019-05-05T20:02:39.867Z,8.07
2019-05-05T20:07:44.004Z,7.70
2019-05-05T20:12:48.355Z,8.43
2019-05-05T20:17:53.928Z,11.00
2019-05-05T20:22:58.105Z,10.20
2019-05-05T20:28:03.929Z,12.07
2019-05-05T20:33:13.739Z,8.53
2019-05-05T20:38:23.856Z,11.43
2019-05-05T20:43:29.134Z,12.23
2019-05-05T20:48:34.580Z,11.67
2019-05-05T20:53:39.742Z,11.50
2019-05-05T20:58:44.065Z,12.00
2019-05-05T21:03:48.631Z,10.13
2019-05-05T21:08:52.925Z,11.23
2019-05-05T21:13:57.342Z,11.70
2019-05-05T21:19:01.358Z,11.17
2019-05-05T21:24:06.351Z,15.50
2019-05-05T21:29:10.831Z,10.93
2019-05-05T21:34:15.239Z,9.00
2019-05-05T21:39:19.491Z,9.67
2019-05-05T21:44:23.943Z,11.07
2019-05-05T21:49:28.286Z,9.33
2019-05-05T21:54:40.271Z,11.03
2019-05-05T21:59:54.832Z,12.50
2019-05-05T22:04:50.447Z,10.93
2019-05-05T22:09:54.946Z,11.60
2019-05-05T22:14:59.248Z,10.93
2019-05-05T22:20:05.883Z,10.47
2019-05-05T22:25:10.539Z,8.43
2019-05-05T22:30:14.973Z,10.40
2019-05-05T22:35:18.928Z,9.60
2019-05-05T22:40:24.396Z,9.57
2019-05-05T22:45:29.125Z,8.17
2019-05-05T22:50:34.274Z,9.17
2019-05-05T22:55:38.255Z,9.30
2019-05-05T23:00:43.811Z,9.20
2019-05-05T23:05:55.335Z,14.93
2019-05-05T23:10:59.202Z,11.13
2019-05-05T23:16:05.396Z,11.13
2019-05-05T23:21:24.721Z,11.03
2019-05-05T23:26:30.471Z,7.93
2019-05-05T23:31:35.103Z,7.50
2019-05-05T23:36:39.207Z,11.47
2019-05-05T23:41:43.118Z,8.77
2019-05-05T23:46:47.319Z,8.63
2019-05-05T23:51:51.286Z,8.33
2019-05-05T23:56:55.465Z,10.37
